Time;durP1;ratioP1;P1;durP2;ratioP2;P2;SDS_P1;SDS_P2;PMS_P1;PMS_P2;Temp;Humidity;BMP_temperature;BMP_pressure;BME280_temperature;BME280_humidity;BME280_pressure;Samples;Min_cycle;Max_cycle;Signal;HPM_P1;HPM_P2
2022/09/21 00:01:43;;;;;;;6.15;3.10;;;;;;;8.69;100.00;102673.91;4979466;28;20045;-82
2022/09/21 00:04:12;;;;;;;5.93;3.10;;;;;;;8.66;100.00;102674.69;4974160;28;20053;-82
2022/09/21 00:06:40;;;;;;;4.38;3.20;;;;;;;8.65;100.00;102672.88;4991426;28;20038;-82
2022/09/21 00:09:09;;;;;;;5.90;3.28;;;;;;;8.64;100.00;102672.81;4987804;28;20046;-82
2022/09/21 00:11:38;;;;;;;10.27;3.10;;;;;;;8.62;100.00;102671.88;4984434;28;20148;-82
2022/09/21 00:14:11;;;;;;;8.25;2.80;;;;;;;8.61;100.00;102670.09;4978215;28;20046;-82
2022/09/21 00:16:41;;;;;;;9.40;3.45;;;;;;;8.59;100.00;102678.78;4986270;28;20046;-82
2022/09/21 00:19:10;;;;;;;7.75;3.17;;;;;;;8.57;100.00;102669.97;4969169;28;20530;-83
2022/09/21 00:21:39;;;;;;;8.05;3.25;;;;;;;8.55;100.00;102668.13;4964718;28;20177;-80
2022/09/21 00:24:08;;;;;;;4.85;3.00;;;;;;;8.52;100.00;102670.59;4961256;28;20046;-82
2022/09/21 00:26:36;;;;;;;8.90;3.00;;;;;;;8.51;100.00;102676.72;4966918;28;20050;-83
2022/09/21 00:29:07;;;;;;;6.03;3.03;;;;;;;8.50;100.00;102667.03;4976402;28;20065;-82
2022/09/21 00:31:39;;;;;;;6.40;2.92;;;;;;;8.49;100.00;102671.38;5004097;28;20367;-81
2022/09/21 00:34:08;;;;;;;3.42;2.55;;;;;;;8.48;100.00;102671.31;5012422;28;20041;-82
2022/09/21 00:36:36;;;;;;;6.43;2.90;;;;;;;8.46;100.00;102662.47;4957688;28;20054;-83
2022/09/21 00:39:06;;;;;;;6.32;2.50;;;;;;;8.45;100.00;102664.22;4943789;28;20054;-83
2022/09/21 00:41:35;;;;;;;5.97;2.93;;;;;;;8.43;100.00;102662.34;4977178;28;20624;-84
2022/09/21 00:44:28;;;;;;;6.10;3.25;;;;;;;8.42;100.00;102664.09;4992358;28;20634;-82
2022/09/21 00:47:11;;;;;;;4.75;2.80;;;;;;;8.40;100.00;102663.09;5000286;28;20049;-83
2022/09/21 00:49:42;;;;;;;7.25;2.88;;;;;;;8.37;100.00;102658.63;4987438;28;20034;-81
2022/09/21 00:52:13;;;;;;;;;;;;;;;8.37;100.00;102670.84;5001361;28;20057;-81
2022/09/21 00:54:59;;;;;;;2.75;2.30;;;;;;;8.35;100.00;102677.75;4961444;28;20269;-82
2022/09/21 00:57:30;;;;;;;3.58;2.65;;;;;;;8.32;100.00;102672.41;5003060;28;20049;-82
2022/09/21 01:00:03;;;;;;;5.78;2.40;;;;;;;8.31;100.00;102671.47;4995827;28;20058;-82
2022/09/21 01:02:33;;;;;;;4.40;2.72;;;;;;;8.30;100.00;102680.22;5003765;28;20046;-81
2022/09/21 01:05:07;;;;;;;4.80;2.57;;;;;;;8.27;100.00;102677.44;5006235;28;20065;-81
2022/09/21 01:07:40;;;;;;;8.38;2.95;;;;;;;8.26;100.00;102673.03;4990967;28;20287;-80
2022/09/21 01:10:13;;;;;;;7.93;2.70;;;;;;;8.25;100.00;102671.22;4967199;28;20738;-81
2022/09/21 01:13:08;;;;;;;5.60;2.90;;;;;;;8.23;100.00;102670.28;4983165;28;20160;-81
2022/09/21 01:15:57;;;;;;;7.07;3.05;;;;;;;8.22;100.00;102678.97;5005918;28;20052;-81
2022/09/21 01:18:50;;;;;;;5.45;2.70;;;;;;;8.20;100.00;102671.03;5000909;28;20046;-80
2022/09/21 01:21:22;;;;;;;10.07;3.00;;;;;;;8.18;100.00;102674.41;4993210;28;20034;-81
2022/09/21 01:24:10;;;;;;;5.40;2.38;;;;;;;8.15;100.00;102675.19;4990755;28;20053;-82
2022/09/21 01:26:49;;;;;;;3.90;2.40;;;;;;;8.14;100.00;102681.28;4941101;28;20097;-82
2022/09/21 01:29:27;;;;;;;3.28;2.80;;;;;;;8.13;100.00;102671.63;4977976;28;20041;-83
2022/09/21 01:32:01;;;;;;;3.93;1.80;;;;;;;8.13;100.00;102678.59;5009678;28;20053;-82
2022/09/21 01:34:36;;;;;;;7.45;2.90;;;;;;;8.11;100.00;102673.28;4971493;28;20693;-82
2022/09/21 01:37:14;;;;;;;5.47;2.67;;;;;;;8.11;100.00;102672.38;5011997;28;20057;-83
2022/09/21 01:39:50;;;;;;;7.28;3.28;;;;;;;8.10;100.00;102675.84;5004330;28;20050;-83
2022/09/21 01:42:20;;;;;;;5.22;2.67;;;;;;;8.07;100.00;102670.44;4966263;28;20050;-81
2022/09/21 01:44:49;;;;;;;4.03;3.03;;;;;;;8.04;100.00;102670.34;5010985;28;20375;-83
2022/09/21 01:47:19;;;;;;;4.63;2.30;;;;;;;8.02;100.00;102659.75;4991365;28;20411;-83
2022/09/21 01:49:52;;;;;;;5.22;2.25;;;;;;;8.00;100.00;102666.69;5005329;28;20041;-81
2022/09/21 01:52:24;;;;;;;4.03;2.20;;;;;;;7.98;100.00;102670.97;5010234;28;20038;-82
2022/09/21 01:55:27;;;;;;;3.35;2.17;;;;;;;7.97;100.00;102680.53;4993646;28;20049;-81
2022/09/21 01:58:02;;;;;;;6.00;2.50;;;;;;;7.94;100.00;102669.94;5012330;28;20411;-81
2022/09/21 02:00:33;;;;;;;2.20;2.10;;;;;;;7.93;100.00;102675.13;5021669;28;20042;-82
2022/09/21 02:03:10;;;;;;;4.13;2.83;;;;;;;7.92;100.00;102675.94;4993593;28;20038;-83
2022/09/21 02:05:40;;;;;;;5.60;2.45;;;;;;;7.90;100.00;102673.25;5012695;28;20049;-83
2022/09/21 02:08:12;;;;;;;4.50;2.58;;;;;;;7.89;100.00;102673.19;4990776;28;20054;-82
2022/09/21 02:10:50;;;;;;;3.17;2.55;;;;;;;7.87;100.00;102677.47;4996522;28;20033;-82
2022/09/21 02:13:24;;;;;;;5.18;2.63;;;;;;;7.86;100.00;102673.03;4997527;28;20327;-81
2022/09/21 02:16:14;;;;;;;4.00;2.63;;;;;;;7.83;100.00;102675.56;4989937;28;20056;-81
2022/09/21 02:19:01;;;;;;;7.47;2.40;;;;;;;7.80;100.00;102677.19;5012466;28;20046;-83
2022/09/21 02:21:40;;;;;;;6.00;2.33;;;;;;;7.80;100.00;102677.19;5000433;28;20167;-82
2022/09/21 02:24:43;;;;;;;4.30;2.67;;;;;;;7.79;100.00;102675.41;4993818;28;20037;-81
2022/09/21 02:27:34;;;;;;;3.85;2.72;;;;;;;7.78;100.00;102673.59;4950388;28;20062;-81
2022/09/21 02:30:29;;;;;;;4.55;2.60;;;;;;;7.79;100.00;102678.03;5001771;28;20042;-82
2022/09/21 02:33:25;;;;;;;3.85;2.95;;;;;;;7.79;100.00;102670.16;5010420;28;20041;-83
2022/09/21 02:36:08;;;;;;;5.57;3.60;;;;;;;7.80;100.00;102681.53;4994559;28;20050;-83
2022/09/21 02:38:53;;;;;;;3.75;2.70;;;;;;;7.78;100.00;102678.84;4984316;28;20038;-81
2022/09/21 02:41:37;;;;;;;5.25;2.78;;;;;;;7.77;100.00;102676.19;5009905;28;20065;-81
2022/09/21 02:44:09;;;;;;;5.55;2.92;;;;;;;7.78;100.00;102680.59;4949670;28;20049;-81
2022/09/21 02:46:53;;;;;;;5.60;3.05;;;;;;;7.78;100.00;102670.97;4990170;28;20054;-83
2022/09/21 02:49:31;;;;;;;7.10;3.00;;;;;;;7.78;100.00;102676.22;5011815;28;20046;-81
2022/09/21 02:52:06;;;;;;;3.38;2.88;;;;;;;7.78;100.00;102670.97;5012139;28;20046;-82
2022/09/21 02:54:39;;;;;;;4.68;3.08;;;;;;;7.78;100.00;102672.72;5015644;28;20045;-81
2022/09/21 02:57:10;;;;;;;5.70;3.05;;;;;;;7.76;100.00;102670.00;4983454;28;20054;-81
2022/09/21 02:59:40;;;;;;;5.68;2.97;;;;;;;7.74;100.00;102665.53;4954728;28;20053;-82
2022/09/21 03:02:09;;;;;;;4.18;3.05;;;;;;;7.73;100.00;102675.16;4958999;28;20054;-83
2022/09/21 03:04:40;;;;;;;6.35;3.13;;;;;;;7.70;100.00;102672.38;4994032;28;20049;-83
2022/09/21 03:07:09;;;;;;;5.20;2.97;;;;;;;7.66;100.00;102667.84;4969796;28;20053;-81
2022/09/21 03:09:37;;;;;;;6.72;3.10;;;;;;;7.64;100.00;102666.88;5005667;28;20058;-82
2022/09/21 03:12:05;;;;;;;8.65;3.20;;;;;;;7.64;100.00;102668.56;4976895;28;20403;-83
2022/09/21 03:14:34;;;;;;;3.97;3.15;;;;;;;7.60;100.00;102671.09;4964220;28;20034;-81
2022/09/21 03:17:03;;;;;;;5.60;3.10;;;;;;;7.60;100.00;102672.81;4996420;28;20519;-81
2022/09/21 03:19:31;;;;;;;6.47;3.60;;;;;;;7.58;100.00;102678.00;4958533;28;20679;-83
2022/09/21 03:21:59;;;;;;;8.90;3.28;;;;;;;7.57;100.00;102683.16;5005651;28;20038;-81
2022/09/21 03:24:46;;;;;;;3.90;2.92;;;;;;;7.54;100.00;102673.44;5003439;28;20034;-82
2022/09/21 03:27:17;;;;;;;5.70;2.97;;;;;;;7.51;100.00;102672.41;4965493;28;20073;-83
2022/09/21 03:29:46;;;;;;;3.10;2.80;;;;;;;7.49;100.00;102677.56;5006683;28;20049;-83
2022/09/21 03:32:15;;;;;;;6.28;2.97;;;;;;;7.48;100.00;102686.25;4961977;28;20049;-81
2022/09/21 03:34:50;;;;;;;4.93;2.80;;;;;;;7.48;100.00;102688.00;4989282;28;20042;-82
2022/09/21 03:37:18;;;;;;;3.03;2.75;;;;;;;7.48;100.00;102674.88;5008371;28;20184;-82
2022/09/21 03:39:47;;;;;;;3.50;2.60;;;;;;;7.45;100.00;102680.88;4952173;28;20053;-82
2022/09/21 03:42:15;;;;;;;3.63;2.78;;;;;;;7.40;100.00;102685.03;4990280;28;20069;-82
2022/09/21 03:44:44;;;;;;;2.80;2.40;;;;;;;7.38;100.00;102686.69;4979680;28;20034;-82
2022/09/21 03:47:12;;;;;;;3.60;2.55;;;;;;;7.37;100.00;102690.13;4951589;28;20675;-82
2022/09/21 03:49:41;;;;;;;2.63;2.42;;;;;;;7.35;100.00;102686.53;5006489;28;20042;-81
2022/09/21 03:52:10;;;;;;;2.55;2.35;;;;;;;7.34;100.00;102690.88;4975196;28;20042;-82
2022/09/21 03:54:38;;;;;;;5.60;2.13;;;;;;;7.32;100.00;102691.66;4976005;28;20034;-82
2022/09/21 03:57:07;;;;;;;2.60;2.40;;;;;;;7.30;100.00;102686.31;4977285;28;20085;-82
2022/09/21 03:59:36;;;;;;;2.67;2.25;;;;;;;7.30;100.00;102693.31;4994769;28;20057;-83
2022/09/21 04:02:04;;;;;;;2.50;2.30;;;;;;;7.28;100.00;102698.47;4940479;28;20058;-82
2022/09/21 04:04:33;;;;;;;2.20;2.10;;;;;;;7.26;100.00;102700.13;4973408;28;20034;-82
2022/09/21 04:07:01;;;;;;;2.50;2.30;;;;;;;7.24;100.00;102699.16;4986091;28;20038;-82
2022/09/21 04:09:30;;;;;;;2.67;2.45;;;;;;;7.23;100.00;102706.09;4976362;28;20041;-81
2022/09/21 04:11:58;;;;;;;3.03;2.10;;;;;;;7.22;100.00;102704.34;4974706;28;20037;-81
2022/09/21 04:14:27;;;;;;;3.10;2.05;;;;;;;7.20;100.00;102698.13;4983081;28;20599;-82
2022/09/21 04:16:57;;;;;;;2.45;2.25;;;;;;;7.17;100.00;102702.31;4982512;28;20045;-81
2022/09/21 04:19:25;;;;;;;2.67;1.98;;;;;;;7.16;100.00;102703.13;5002561;28;20422;-80
2022/09/21 04:21:55;;;;;;;2.63;2.42;;;;;;;7.14;100.00;102697.81;5002393;28;20498;-82
2022/09/21 04:24:23;;;;;;;2.80;2.60;;;;;;;7.12;100.00;102702.09;4985700;28;20081;-82
2022/09/21 04:26:51;;;;;;;3.33;2.30;;;;;;;7.13;100.00;102695.16;4992324;28;20041;-82
2022/09/21 04:29:21;;;;;;;2.65;2.45;;;;;;;7.11;100.00;102699.41;4977241;28;20543;-82
2022/09/21 04:31:49;;;;;;;3.05;2.70;;;;;;;7.10;100.00;102708.97;4961334;28;20061;-82
2022/09/21 04:34:18;;;;;;;2.88;2.58;;;;;;;7.09;100.00;102706.28;4915305;28;20057;-81
2022/09/21 04:36:46;;;;;;;5.68;2.60;;;;;;;7.08;100.00;102700.16;4987542;28;20049;-82
2022/09/21 04:39:15;;;;;;;2.92;2.65;;;;;;;7.07;100.00;102705.31;4967715;28;20081;-81
2022/09/21 04:41:44;;;;;;;5.80;2.60;;;;;;;7.05;100.00;102704.34;4987014;28;20395;-83
2022/09/21 04:44:12;;;;;;;4.10;2.65;;;;;;;7.05;100.00;102706.97;4992531;28;20046;-82
2022/09/21 04:46:41;;;;;;;4.20;2.63;;;;;;;7.02;100.00;102706.00;4977413;28;20521;-82
2022/09/21 04:49:09;;;;;;;2.17;1.98;;;;;;;7.01;100.00;102708.53;4947886;28;20057;-81
2022/09/21 04:51:38;;;;;;;3.25;2.25;;;;;;;7.00;100.00;102706.75;4984694;28;20400;-81
2022/09/21 04:54:06;;;;;;;3.88;2.58;;;;;;;7.00;100.00;102706.75;4965508;28;20042;-81
2022/09/21 04:56:35;;;;;;;3.63;2.92;;;;;;;6.98;100.00;102711.94;4986616;28;20049;-81
2022/09/21 04:59:03;;;;;;;5.60;3.10;;;;;;;6.99;100.00;102703.25;4989887;28;20042;-82
2022/09/21 05:01:32;;;;;;;3.25;2.40;;;;;;;6.99;100.00;102718.97;4976417;28;20058;-83
2022/09/21 05:04:01;;;;;;;4.57;3.10;;;;;;;7.00;100.00;102706.75;4976468;28;20121;-84
2022/09/21 05:06:31;;;;;;;7.10;4.38;;;;;;;7.01;100.00;102706.84;5001390;28;20531;-83
2022/09/21 05:11:47;;;;;;;7.60;5.68;;;;;;;7.05;100.00;102718.38;5002384;28;20048;-82
2022/09/21 05:14:16;;;;;;;11.80;5.65;;;;;;;7.06;100.00;102714.03;4975552;28;20268;-82
2022/09/21 05:16:48;;;;;;;7.07;4.28;;;;;;;7.08;100.00;102725.47;4994601;28;20046;-82
2022/09/21 05:19:17;;;;;;;4.93;3.42;;;;;;;7.10;100.00;102726.44;4964978;28;20057;-84
2022/09/21 05:21:46;;;;;;;8.98;4.18;;;;;;;7.12;100.00;102722.16;4991229;28;20046;-82
2022/09/21 05:24:14;;;;;;;5.20;4.22;;;;;;;7.14;100.00;102723.13;4972363;28;20046;-80
2022/09/21 05:26:42;;;;;;;5.18;3.60;;;;;;;7.16;100.00;102718.88;4971800;28;20039;-83
2022/09/21 05:29:11;;;;;;;5.93;4.43;;;;;;;7.17;100.00;102728.53;5005750;28;20053;-80
2022/09/21 05:32:12;;;;;;;4.60;3.70;;;;;;;7.18;100.00;102730.31;4979794;28;20042;-83
2022/09/21 05:35:00;;;;;;;8.40;4.18;;;;;;;7.19;100.00;102726.88;4975832;28;20046;-83
2022/09/21 05:38:11;;;;;;;4.65;4.22;;;;;;;7.19;100.00;102726.88;4993796;28;20160;-82
2022/09/21 05:40:42;;;;;;;5.90;4.85;;;;;;;7.19;100.00;102726.88;4932043;28;20058;-80
2022/09/21 05:43:10;;;;;;;8.23;3.83;;;;;;;7.18;100.00;102727.69;4932362;29;20750;-82
2022/09/21 05:45:44;;;;;;;7.43;4.85;;;;;;;7.20;100.00;102726.03;4960294;28;20042;-81
2022/09/21 05:48:18;;;;;;;8.95;6.15;;;;;;;7.22;100.00;102727.00;4963307;28;20742;-81
2022/09/21 05:51:12;;;;;;;7.10;4.70;;;;;;;7.24;100.00;102722.75;4997581;28;20053;-82
2022/09/21 05:53:59;;;;;;;6.97;5.13;;;;;;;7.26;100.00;102728.97;4979512;28;20045;-81
2022/09/21 05:56:46;;;;;;;7.40;4.53;;;;;;;7.30;100.00;102730.91;5004213;28;20170;-81
2022/09/21 05:59:44;;;;;;;12.40;5.65;;;;;;;7.32;100.00;102737.13;4985052;28;20042;-81
2022/09/21 06:02:43;;;;;;;7.63;4.20;;;;;;;7.36;100.00;102731.19;5001541;28;20435;-81
2022/09/21 06:05:14;;;;;;;6.53;4.13;;;;;;;7.39;100.00;102726.09;5010485;28;20228;-81
2022/09/21 06:07:42;;;;;;;6.00;3.67;;;;;;;7.44;100.00;102730.66;4982577;28;20304;-80
2022/09/21 06:10:12;;;;;;;4.32;3.95;;;;;;;7.49;100.00;102732.66;4978189;28;20076;-80
2022/09/21 06:12:41;;;;;;;4.93;3.92;;;;;;;7.53;100.00;102734.59;4972635;28;20042;-82
2022/09/21 06:15:13;;;;;;;6.10;4.35;;;;;;;7.56;100.00;102733.81;5007982;28;20046;-80
2022/09/21 06:17:42;;;;;;;7.00;3.90;;;;;;;7.61;100.00;102740.19;4995701;28;20045;-82
2022/09/21 06:20:11;;;;;;;7.15;3.72;;;;;;;7.66;100.00;102740.41;4980047;28;20232;-82
2022/09/21 06:22:39;;;;;;;8.27;5.65;;;;;;;7.71;100.00;102734.53;4959816;28;20057;-82
2022/09/21 06:25:08;;;;;;;8.80;6.70;;;;;;;7.74;100.00;102745.16;4973064;28;20053;-81
2022/09/21 06:27:37;;;;;;;5.80;5.10;;;;;;;7.80;100.00;102739.28;4996047;28;20046;-82
2022/09/21 06:30:06;;;;;;;5.65;4.20;;;;;;;7.85;100.00;102742.13;4991782;28;20040;-82
2022/09/21 06:32:34;;;;;;;5.55;3.47;;;;;;;7.89;100.00;102747.56;4965022;28;20049;-82
2022/09/21 06:35:03;;;;;;;5.00;3.45;;;;;;;7.94;100.00;102745.16;4990111;28;20141;-83
2022/09/21 06:37:32;;;;;;;6.75;3.92;;;;;;;7.99;100.00;102747.13;4987995;28;20399;-80
2022/09/21 06:40:01;;;;;;;4.13;3.58;;;;;;;8.05;100.00;102745.63;4976699;28;20283;-81
2022/09/21 06:42:30;;;;;;;5.63;3.50;;;;;;;8.09;100.00;102737.97;5012486;28;20038;-81
2022/09/21 06:44:58;;;;;;;4.28;3.72;;;;;;;8.15;100.00;102740.84;4992873;28;20050;-80
2022/09/21 06:47:27;;;;;;;4.18;3.20;;;;;;;8.21;100.00;102737.59;4994030;28;20053;-81
2022/09/21 06:49:57;;;;;;;6.63;3.63;;;;;;;8.36;100.00;102740.00;4989123;28;20042;-80
2022/09/21 06:52:26;;;;;;;7.90;3.45;;;;;;;8.70;100.00;102738.81;5013859;28;20050;-81
2022/09/21 06:54:54;;;;;;;5.90;3.38;;;;;;;9.18;100.00;102739.84;4959372;28;20068;-81
2022/09/21 06:57:23;;;;;;;8.68;3.70;;;;;;;9.73;100.00;102730.56;4977999;28;20065;-80
2022/09/21 06:59:51;;;;;;;3.17;2.70;;;;;;;10.39;100.00;102729.38;4974337;28;20730;-81
2022/09/21 07:02:20;;;;;;;4.78;2.80;;;;;;;10.96;100.00;102731.22;5000596;28;20042;-81
2022/09/21 07:04:49;;;;;;;3.10;2.80;;;;;;;11.53;100.00;102725.06;4986530;28;20057;-80
2022/09/21 07:07:18;;;;;;;4.65;2.40;;;;;;;12.11;100.00;102728.44;4980078;28;20604;-81
2022/09/21 07:09:47;;;;;;;4.68;2.63;;;;;;;12.32;100.00;102720.19;4986380;28;20046;-81
2022/09/21 07:12:35;;;;;;;5.07;2.53;;;;;;;12.34;100.00;102733.44;4990791;28;20053;-81
2022/09/21 07:15:05;;;;;;;6.70;3.10;;;;;;;12.38;100.00;102732.66;4985600;28;20267;-82
2022/09/21 07:17:37;;;;;;;6.20;2.70;;;;;;;12.39;100.00;102734.47;4988753;28;20034;-83
2022/09/21 07:20:06;;;;;;;;;;;;;;;12.53;100.00;102726.88;4987768;28;20050;-80
2022/09/21 07:22:35;;;;;;;5.80;2.70;;;;;;;12.83;100.00;102737.31;5005666;28;19921;-79
2022/09/21 07:25:05;;;;;;;5.72;2.75;;;;;;;13.15;100.00;102732.78;4980595;28;20065;-81
2022/09/21 07:27:33;;;;;;;6.75;3.28;;;;;;;13.30;100.00;102726.97;4977639;28;20046;-81
2022/09/21 07:30:05;;;;;;;6.55;2.30;;;;;;;13.42;100.00;102732.53;5003493;28;20065;-79
2022/09/21 07:32:35;;;;;;;8.18;3.13;;;;;;;13.67;100.00;102733.06;5000839;28;20513;-81
2022/09/21 07:35:06;;;;;;;7.60;2.78;;;;;;;13.97;100.00;102729.19;4986599;28;20050;-80
2022/09/21 07:37:35;;;;;;;7.28;2.92;;;;;;;14.24;100.00;102729.72;4986718;28;20040;-81
2022/09/21 07:40:05;;;;;;;9.32;3.40;;;;;;;14.62;100.00;102733.94;4966194;28;20509;-80
2022/09/21 07:42:36;;;;;;;9.70;3.10;;;;;;;14.98;100.00;102730.09;5025471;28;20076;-81
2022/09/21 07:45:05;;;;;;;8.25;2.67;;;;;;;15.26;100.00;102726.06;4993242;28;20506;-81
2022/09/21 07:47:35;;;;;;;8.85;2.83;;;;;;;15.63;100.00;102730.94;5018176;28;20037;-80
2022/09/21 07:50:03;;;;;;;8.13;2.50;;;;;;;15.95;100.00;102726.94;5009589;28;20044;-81
2022/09/21 07:52:32;;;;;;;5.80;2.30;;;;;;;16.28;100.00;102730.81;5007723;28;20033;-80
2022/09/21 07:55:00;;;;;;;8.23;2.30;;;;;;;16.54;100.00;102727.47;4986764;28;20533;-79
2022/09/21 08:00:17;;;;;;;5.45;2.08;;;;;;;16.99;100.00;102733.19;4996332;28;20030;-80
2022/09/21 08:02:45;;;;;;;8.87;2.10;;;;;;;17.06;100.00;102735.00;4982719;28;20054;-81
2022/09/21 08:05:15;;;;;;;3.17;1.90;;;;;;;17.21;100.00;102735.09;4980693;28;20312;-80
2022/09/21 08:07:45;;;;;;;6.20;1.92;;;;;;;17.38;100.00;102736.97;4999514;28;20046;-79
2022/09/21 08:10:13;;;;;;;4.80;1.77;;;;;;;17.47;100.00;102735.22;4993731;28;20038;-80
2022/09/21 08:12:43;;;;;;;4.05;2.20;;;;;;;17.62;100.00;102736.19;4958195;28;20507;-79
2022/09/21 08:15:13;;;;;;;3.53;1.67;;;;;;;17.75;100.00;102727.34;4963885;28;20037;-79
2022/09/21 08:18:06;;;;;;;4.35;1.60;;;;;;;17.89;100.00;102738.06;4998141;28;20057;-80
2022/09/21 08:20:35;;;;;;;2.13;1.20;;;;;;;17.89;100.00;102735.41;5001717;28;20050;-81
2022/09/21 08:23:03;;;;;;;4.30;1.33;;;;;;;17.88;100.00;102737.19;4965478;28;20049;-81
2022/09/21 08:25:33;;;;;;;3.53;1.40;;;;;;;17.99;100.00;102736.31;4988513;28;20056;-80
2022/09/21 08:28:01;;;;;;;5.28;1.30;;;;;;;18.12;100.00;102749.69;4943631;28;20038;-80
2022/09/21 08:30:37;;;;;;;4.43;1.50;;;;;;;18.28;100.00;102739.06;4985354;28;20042;-80
2022/09/21 08:33:05;;;;;;;7.22;1.10;;;;;;;18.31;99.35;102745.25;5002125;28;20050;-80
2022/09/21 08:35:35;;;;;;;5.00;1.40;;;;;;;18.36;97.01;102752.41;5009572;28;20065;-80
2022/09/21 08:38:04;;;;;;;7.20;1.52;;;;;;;18.38;95.62;102745.28;5003676;28;20385;-80
2022/09/21 08:40:34;;;;;;;6.47;1.63;;;;;;;18.33;94.81;102747.94;4987718;28;20046;-79
2022/09/21 08:43:10;;;;;;;5.50;1.52;;;;;;;18.24;93.03;102738.16;4977031;28;20046;-79
2022/09/21 08:45:42;;;;;;;3.72;1.85;;;;;;;18.20;92.52;102746.13;4993967;28;20044;-79
2022/09/21 08:48:25;;;;;;;4.65;1.58;;;;;;;18.25;91.01;102747.94;4966040;28;20058;-80
2022/09/21 08:51:05;;;;;;;3.83;1.25;;;;;;;18.20;89.18;102746.13;4973028;28;20056;-81
2022/09/21 08:53:37;;;;;;;5.18;1.48;;;;;;;18.21;88.91;102755.94;4981779;28;20065;-80
2022/09/21 08:56:11;;;;;;;4.57;1.13;;;;;;;18.15;87.70;102745.22;4977365;28;20171;-81
2022/09/21 08:58:40;;;;;;;4.00;1.42;;;;;;;18.03;86.46;102752.31;4963950;28;20046;-81
2022/09/21 09:01:50;;;;;;;6.38;1.75;;;;;;;17.97;86.30;102754.09;4981946;28;20056;-81
2022/09/21 09:04:25;;;;;;;;;;;;;;;17.82;84.65;102755.78;4982366;28;20034;-81
2022/09/21 09:07:02;;;;;;;7.57;1.40;;;;;;;17.67;84.13;102753.06;4986923;28;20155;-79
2022/09/21 09:09:52;;;;;;;3.72;0.95;;;;;;;17.48;84.37;102752.97;5009358;28;20041;-81
2022/09/21 09:12:39;;;;;;;4.88;1.60;;;;;;;17.32;84.31;102756.47;4980653;28;20049;-80
2022/09/21 09:15:17;;;;;;;3.88;1.15;;;;;;;17.10;85.04;102759.00;4987927;28;20037;-79
2022/09/21 09:18:11;;;;;;;5.82;1.52;;;;;;;16.99;86.69;102767.78;4985148;28;20065;-80
2022/09/21 09:21:03;;;;;;;4.38;1.58;;;;;;;16.83;87.59;102762.38;5003110;28;20030;-79
2022/09/21 09:23:38;;;;;;;4.28;1.40;;;;;;;16.74;88.60;102757.81;4979231;28;20042;-79
2022/09/21 09:26:31;;;;;;;6.47;1.10;;;;;;;16.66;87.52;102764.84;4977554;28;20674;-80
2022/09/21 09:29:05;;;;;;;7.63;1.58;;;;;;;16.64;87.35;102763.06;4956126;28;20408;-78
2022/09/21 09:31:35;;;;;;;4.88;1.00;;;;;;;16.62;88.86;102764.84;4969544;28;20073;-78
2022/09/21 09:34:39;;;;;;;4.25;1.40;;;;;;;16.53;87.04;102752.31;4999675;28;20050;-77
2022/09/21 09:37:15;;;;;;;5.43;1.17;;;;;;;16.53;87.52;102752.31;4988944;28;20038;-79
2022/09/21 09:39:56;;;;;;;2.85;1.25;;;;;;;16.51;88.05;102754.97;4996919;28;20043;-79
2022/09/21 09:42:47;;;;;;;2.30;0.75;;;;;;;16.47;86.94;102754.94;4974038;28;20041;-79
2022/09/21 09:45:34;;;;;;;2.70;1.33;;;;;;;16.40;85.58;102750.44;4967430;28;20598;-78
2022/09/21 09:48:12;;;;;;;5.57;1.13;;;;;;;16.36;86.04;102754.81;5002661;28;20050;-80
2022/09/21 09:50:41;;;;;;;5.47;1.60;;;;;;;16.34;85.97;102759.25;4972913;28;20042;-79
2022/09/21 09:53:23;;;;;;;1.85;0.98;;;;;;;16.34;86.85;102760.13;4988303;28;20046;-80
2022/09/21 09:55:54;;;;;;;9.68;1.98;;;;;;;16.35;86.98;102753.03;5002862;28;20042;-78
2022/09/21 09:58:45;;;;;;;6.20;1.30;;;;;;;16.42;86.70;102751.34;4997384;28;20043;-79
2022/09/21 10:01:38;;;;;;;5.18;1.08;;;;;;;16.49;85.93;102748.75;4969647;28;20500;-79
2022/09/21 10:04:12;;;;;;;3.85;1.17;;;;;;;16.52;85.29;102753.19;4996509;28;20054;-80
2022/09/21 10:06:41;;;;;;;5.95;1.20;;;;;;;16.54;85.71;102749.69;4974298;28;20319;-80
2022/09/21 10:09:22;;;;;;;3.33;1.40;;;;;;;16.56;85.66;102752.38;4990204;28;20038;-79
2022/09/21 10:11:53;;;;;;;6.18;1.02;;;;;;;16.56;84.07;102752.38;5012619;28;20049;-80
2022/09/21 10:14:24;;;;;;;3.28;0.95;;;;;;;16.58;85.44;102755.94;4970278;28;20061;-79
2022/09/21 10:16:55;;;;;;;4.90;1.55;;;;;;;16.67;85.61;102752.44;4962946;28;20563;-78
2022/09/21 10:19:26;;;;;;;6.38;1.10;;;;;;;16.67;83.98;102752.44;4987250;28;20046;-81
2022/09/21 10:22:01;;;;;;;2.63;0.98;;;;;;;16.73;84.62;102745.41;4992263;28;20444;-81
2022/09/21 10:24:33;;;;;;;5.28;1.30;;;;;;;16.83;84.64;102749.06;4964438;28;20057;-80
2022/09/21 10:27:05;;;;;;;2.58;1.10;;;;;;;16.92;83.59;102748.25;4998801;28;20391;-80
2022/09/21 10:29:48;;;;;;;4.60;1.35;;;;;;;17.01;84.56;102740.28;4990478;28;20041;-81
2022/09/21 10:32:36;;;;;;;6.65;1.60;;;;;;;17.15;84.54;102735.94;4929220;28;20053;-80
2022/09/21 10:35:07;;;;;;;4.03;1.35;;;;;;;17.26;83.83;102737.78;4990275;28;20046;-78
2022/09/21 10:37:47;;;;;;;3.13;1.10;;;;;;;17.33;82.11;102744.91;4946291;28;20336;-81
2022/09/21 10:40:18;;;;;;;1.75;1.13;;;;;;;17.40;81.85;102738.75;4980339;28;20043;-78
2022/09/21 10:42:49;;;;;;;4.53;0.80;;;;;;;17.45;80.78;102742.31;4959712;28;20102;-77
2022/09/21 10:45:21;;;;;;;2.55;0.70;;;;;;;17.50;81.19;102740.59;4980283;28;20057;-78
2022/09/21 10:48:09;;;;;;;3.47;1.23;;;;;;;17.53;78.30;102740.56;4974810;28;20050;-79
2022/09/21 10:50:48;;;;;;;2.92;0.90;;;;;;;17.47;79.72;102739.69;4967868;28;20042;-79
2022/09/21 10:53:33;;;;;;;2.45;0.95;;;;;;;17.36;79.53;102747.59;4975816;28;20054;-79
2022/09/21 10:56:20;;;;;;;2.67;1.02;;;;;;;17.30;80.26;102743.13;4962454;28;20047;-79
2022/09/21 10:59:27;;;;;;;3.85;0.93;;;;;;;17.30;78.14;102744.91;4974580;28;20055;-79
2022/09/21 11:01:58;;;;;;;6.03;1.40;;;;;;;17.33;79.91;102737.84;4940280;28;20050;-79
2022/09/21 11:04:40;;;;;;;2.80;0.95;;;;;;;17.37;78.92;102730.72;5002349;28;20042;-80
2022/09/21 11:07:22;;;;;;;6.35;1.02;;;;;;;17.41;79.57;102726.31;4996742;28;20046;-79
2022/09/21 11:10:09;;;;;;;2.55;0.75;;;;;;;17.51;78.00;102723.69;4983607;28;20053;-80
2022/09/21 11:13:00;;;;;;;1.85;0.90;;;;;;;17.58;77.99;102735.28;4989448;28;20280;-80
2022/09/21 11:15:39;;;;;;;1.50;0.70;;;;;;;17.68;78.95;102730.88;4997483;28;20057;-78
2022/09/21 11:18:55;;;;;;;5.20;1.42;;;;;;;17.78;78.64;102726.47;4969373;28;20057;-80
2022/09/21 11:21:39;;;;;;;4.05;1.27;;;;;;;17.83;78.76;102730.91;4982640;28;20499;-81
2022/09/21 11:24:49;;;;;;;3.45;1.13;;;;;;;17.70;76.88;102731.75;5003560;28;20354;-79
2022/09/21 11:27:21;;;;;;;3.58;1.30;;;;;;;17.51;77.55;102737.00;4994082;28;20491;-78
2022/09/21 11:30:02;;;;;;;2.78;1.00;;;;;;;17.36;75.80;102736.94;4993246;28;20042;-80
2022/09/21 11:32:43;;;;;;;2.40;0.88;;;;;;;17.30;76.79;102740.47;4982581;28;20042;-80
2022/09/21 11:35:20;;;;;;;1.70;0.98;;;;;;;17.29;76.31;102730.69;5002056;28;20042;-80
2022/09/21 11:38:03;;;;;;;6.18;1.13;;;;;;;17.21;75.36;102723.56;4993122;28;20557;-79
2022/09/21 11:40:40;;;;;;;2.28;0.80;;;;;;;17.18;74.21;102732.41;5001184;28;20045;-80
2022/09/21 11:43:31;;;;;;;4.43;1.20;;;;;;;17.25;74.68;102722.69;5004748;28;20057;-80
2022/09/21 11:46:09;;;;;;;3.97;1.13;;;;;;;17.31;73.66;102731.56;4961315;28;20050;-79
2022/09/21 11:48:53;;;;;;;3.75;0.95;;;;;;;17.31;73.96;102728.03;4958451;28;20040;-79
2022/09/21 11:51:40;;;;;;;3.05;0.88;;;;;;;17.40;74.87;102725.41;4970880;28;20042;-79
2022/09/21 11:54:47;;;;;;;6.15;1.08;;;;;;;17.50;74.93;102721.94;4996388;28;20538;-79
2022/09/21 11:57:34;;;;;;;2.58;1.00;;;;;;;17.54;74.31;102718.38;4977830;28;20391;-78
2022/09/21 12:00:19;;;;;;;3.42;1.00;;;;;;;17.57;73.70;102712.16;4993139;28;20499;-79
2022/09/21 12:03:24;;;;;;;3.42;1.05;;;;;;;17.64;74.73;102708.63;4990722;28;20247;-79
2022/09/21 12:06:20;;;;;;;5.97;1.77;;;;;;;17.72;73.24;102712.22;4950890;28;20084;-78
2022/09/21 12:08:53;;;;;;;3.13;0.80;;;;;;;17.77;75.48;102700.66;4992799;28;20277;-78